| Date | Time | Temp. (oF) | Dew Point (oF) | Rel. Hum. (%) | Press. (in.) | Wind Dir. | Wind Speed (mph) | Hourly Rainfall (in.) |
|
|---|---|---|---|---|---|---|---|---|---|
| 1 | 07/08 | 00:00 | 71 | 69 | 95 | 30.00 | S | 0 | 0.00 |
| 2 | 07/07 | 23:00 | 72 | 70 | 94 | 30.01 | S | 2 | 0.00 |
| 3 | 07/07 | 22:00 | 72 | 69 | 92 | 30.02 | NNE | 4 | 0.00 |
| 4 | 07/07 | 21:00 | 78 | 71 | 80 | 29.99 | NNE | 5 | 0.00 |
| 5 | 07/07 | 20:00 | 80 | 73 | 80 | 29.96 | S | 3 | 0.00 |
| 6 | 07/07 | 19:00 | 83 | 73 | 73 | 29.94 | SSW | 4 | 0.00 |
| 7 | 07/07 | 18:00 | 83 | 73 | 73 | 29.94 | SSW | 12 | 0.00 |
| 8 | 07/07 | 17:00 | 83 | 72 | 72 | 29.95 | S | 5 | 0.00 |
| 9 | 07/07 | 16:00 | 85 | 73 | 68 | 29.97 | ESE | 5 | 0.00 |
| 10 | 07/07 | 15:00 | 84 | 72 | 68 | 29.99 | SE | 7 | 0.00 |
| 11 | 07/07 | 14:00 | 81 | 73 | 79 | 30.02 | E | 4 | 0.00 |
| 12 | 07/07 | 13:00 | 80 | 73 | 80 | 30.04 | ENE | 4 | 0.00 |
| 13 | 07/07 | 12:00 | 80 | 74 | 83 | 30.04 | ENE | 4 | 0.00 |
| 14 | 07/07 | 11:00 | 76 | 73 | 93 | 30.05 | NE | 4 | 0.00 |
| 15 | 07/07 | 10:00 | 73 | 72 | 100 | 30.06 | SSW | 0 | 0.00 |
| 16 | 07/07 | 09:00 | 72 | 72 | 100 | 30.06 | N | 1 | 0.00 |
| 17 | 07/07 | 08:00 | 71 | 71 | 100 | 30.05 | NNE | 2 | 0.00 |
| 18 | 07/07 | 07:00 | 71 | 71 | 100 | 30.04 | ESE | 0 | 0.00 |
| 19 | 07/07 | 06:00 | 71 | 71 | 100 | 30.04 | E | 0 | 0.00 |
| 20 | 07/07 | 05:00 | 71 | 71 | 100 | 30.02 | NNE | 2 | 0.01 |
| 21 | 07/07 | 04:00 | 71 | 71 | 100 | 30.02 | NE | 0 | 0.00 |
| 22 | 07/07 | 03:00 | 71 | 71 | 100 | 30.03 | ENE | 0 | 0.01 |
| 23 | 07/07 | 02:00 | 71 | 70 | 98 | 30.04 | ENE | 2 | 0.01 |
| 24 | 07/07 | 01:00 | 71 | 69 | 96 | 30.05 | ESE | 2 | 0.00 |